Terminal Aerodrome Forecast
Issued by NWS Detroit/Pontiac, MI

Home | Current Version | Previous Version | Text Only | Print | Product List | Glossary On
Versions: 1 2 3 4 5 6 7 8 9 10 11 12 13 14 15 16 17 18
611
FTUS43 KDTX 121120
TAFFNT
TAF
KFNT 121120Z 1212/1312 23011G18KT P6SM SCT030 OVC060
     FM121500 26014G26KT 4SM -SHSN SCT025 OVC040
      TEMPO 1216/1219 2SM -SHSN BKN022 OVC035
     FM121900 30016G28KT P6SM -SHSN SCT028 BKN045
      TEMPO 1219/1223 3SM -SHSN BKN028 OVC035
     FM130300 32013G22KT P6SM -SHSN BKN035=

USA.gov is the U.S. government's official web portal to all federal, state and local government web resources and services.